Fowler, Ohio
Current Conditions -  °F | °C
As of 3:51 AM on Wednesday 28 Jan 2015 (Local Time) from KYNG Reporting Station
Light Fog Light Fog  
Wind Chill:   Ceiling: Unl
Heat Index:   Visibility: 10mi
Dew Point: -2°   Wind: 3mph
Humidity: 83%   Direction: 270°W
Pressure: 30.19"   Gusts: NA
Location:  41.31°N, 80.66°W
Report Text: KYNG 280851Z 27003KT 10SM MIFG CLR M17/M19 A3019 RMK AO2 SLP247 T11671189 51019
Loading
Personal Weather Stations






























Interactive Weather Map New forecast layout! Learn more

10-Day Weather Forecast

Advertisements
Track Severe Weather on mobile